• Join FlightAware (Why Join?)
  • Login
  • US Flag 
05:04AM EDT


 

Airport Tracker/Info


-or-


 

Live Flight TrackerFlight Track Log ✈ BOE2 ✈ 26-Nov-2013 ✈ KBFI - KMWH

Flight Track Log - Related Links

Times and Time Zones

All times are in EST time to prevent confusion due to time zone crossing. See the BOE2 flight status page for this flight to view local times or setup timezone preferences in your user account.

Time Position Orientation Groundspeed Altitude Reporting Facility
EST Latitude Longitude Course Direction KTS MPH feet Rate Location/Type
10:11AM 47.4967 -122.2725 137° Southeast 182 209 1,900  Level Seattle Center
10:12AM 47.4558 -122.2169 137° Southeast 275 316 5,300 3,960 Climbing Seattle Center
10:12AM 47.4514 -122.1806 100° East 277 319 5,900 3,780 Climbing Seattle Center
10:13AM 47.4500 -122.0892 91° East 306 352 9,500 4,200 Climbing Seattle Center
10:13AM 47.4489 -122.0622 93° East 289 333 10,200 2,700 Climbing Seattle Center
10:14AM 47.4403 -121.9283 95° East 338 389 12,800 2,340 Climbing Seattle Center
10:15AM 47.4331 -121.7753 94° East 374 430 15,000 1,440 Climbing Seattle Center
10:16AM 47.4283 -121.6114 92° East 398 458 15,800 1,680 Climbing Seattle Center
10:17AM 47.4256 -121.4508 91° East 396 456 18,400 1,560 Climbing Seattle Center
10:18AM 47.4225 -121.2814 91° East 415 478 19,000 240 Climbing Seattle Center
10:19AM 47.4203 -121.1050 91° East 431 496 19,000  Level Seattle Center
10:20AM 47.4164 -120.9236 92° East 442 509 19,000 -120 Level Seattle Center
10:21AM 47.4117 -120.7183 92° East 450 518 18,800 -1,140 Descending Seattle Center
10:22AM 47.4083 -120.5358 91° East 449 517 16,800 -2,100 Descending Seattle Center
10:24AM 47.4033 -120.3525 92° East 429 494 14,600 -2,820 Descending Seattle Center
10:25AM 47.3997 -120.1917 92° East 395 455 11,100 -1,800 Descending Seattle Center
10:26AM 47.3956 -120.0603 93° East 316 364 11,000 -420 Descending Seattle Center
10:27AM 47.3750 -119.9461 105° East 288 331 10,300 -1,680 Descending Seattle Center
10:28AM 47.3131 -119.8781 143° Southeast 280 322 7,600 -3,000 Descending Seattle Center
10:29AM 47.2494 -119.8094 144° Southeast 264 304 4,300 -1,800 Descending Seattle Center
10:30AM 47.1972 -119.7586 147° Southeast 258 297 4,000 -300 Descending Seattle Center
10:32AM 47.2023 -119.5717 88° East  Level Estimated
10:39AM 47.2086 -119.3191 88° East  Level Estimated
10:40AM 47.2086 -119.3191 13° North  Level Estimated
10:41AM 47.2086 -119.3191 13° North  Level Estimated
10:42AM 47.2086 -119.3191 13° North  Level Estimated
10:43AM 47.2086 -119.3191 13° North  Level Estimated
10:44AM 47.2086 -119.3191 13° North  Level Estimated
10:45AM 47.2086 -119.3191 13° North  Level Estimated
10:46AM 47.2086 -119.3191 13° North  Level Estimated
10:47AM 47.2086 -119.3191 13° North  Level Estimated
10:48AM 47.2086 -119.3191 13° North  Level Estimated
10:49AM 47.2086 -119.3191 13° North  Level Estimated